Chasetown, United Kingdom
Current Conditions -  °F | °C
As of 7:50 PM on Saturday 27 Dec 2014 (Local Time) from EGBB Reporting Station
Broken Clouds Broken Clouds  
Wind Chill: 28°   Ceiling: 2000
Heat Index: 34°   Visibility: 6mi
Dew Point: 32°   Wind: 7mph
Humidity: 93%   Direction: 340°NNW
Pressure: 29.88"   Gusts: NA
Location:  52.67°N, 1.93°W
Report Text: EGBB 271950Z 34006KT 9999 BKN020 BKN025 01/M00 Q1012
Loading
Personal Weather Stations






























Interactive Weather Map New forecast layout! Learn more

10-Day Weather Forecast

Advertisements
Track Severe Weather on mobile